Taylor, NE

11:42 PM CDT on August 26, 2016 (GMT -0500)
Sharp | | Change Station

Elev 2070 ft 41.62 °N, 98.95 °W | Updated 49 minutes ago

Overcast
Overcast
64 °F
Feels Like 64 °F
N
6
Wind Variable Wind from East

Today
High -- | Low -- °F
--% Chance of Precip.
Yesterday
High -- | Low -- °F
Precip. -- in
Pressure 30.02 in
Visibility 10.0 miles
Clouds Overcast 600 ft
Dew Point 60 °F
Humidity 87%
Rainfall 0.00 in
Snow Depth Not available.
6:57 AM 8:20 PM
Waning Crescent, 28% visible
METAR KODX 270353Z AUTO 10005KT 10SM OVC006 18/16 A3004 RMK AO2 SLP165 T01780156
Pressure 30.02 in
Visibility 10.0 miles
Clouds Overcast 600 ft
Dew Point 60 °F
Humidity 87%
Rainfall 0.00 in
Snow Depth Not available.
6:57 AM 8:20 PM
Waning Crescent, 28% visible
METAR KODX 270353Z AUTO 10005KT 10SM OVC006 18/16 A3004 RMK AO2 SLP165 T01780156

10-Day Weather Forecast

Almanac

Astronomy

Aug. 26, 2016 Rise Set
Actual Time
Civil Twilight
Nautical Twilight
Astronomical Twilight
Moon
Length of Visible Light
Length of Day
Tomorrow will be .
, % of the Moon is Illuminated

Today's Extremes

State Highs State Lows

Community

WunderPhotos

Upload Photos

1,935,299 photos uploaded!

WunderBlog® & News

Nearby

Air Quality

  Air Quality AQ Index Pollutant
Not available.

Snow Depth

Station Depth Elevation

Earthquake Activity

City Distance Mag. Time & Date
Minimum magnitude displayed is 2.5.

Coastal Water Temperatures

Place Temperature

Stations

Nearby Weather Stations

Station Location Temp. Windchill Dew Point Humidity Wind Precip. Elev Updated Type
                   

Watches & Warnings

There are currently no watches in effect.